sensor_id;sensor_type;location;lat;lon;timestamp;temperature;humidity
2447;DHT22;26430;48.818;9.244;2022-12-05T00:02:23;2.90;99.90
2447;DHT22;26430;48.818;9.244;2022-12-05T00:04:49;2.90;99.90
2447;DHT22;26430;48.818;9.244;2022-12-05T00:07:14;3.00;99.90
2447;DHT22;26430;48.818;9.244;2022-12-05T00:09:40;3.10;99.90
2447;DHT22;26430;48.818;9.244;2022-12-05T00:12:06;3.10;99.90
2447;DHT22;26430;48.818;9.244;2022-12-05T00:14:32;3.00;99.90
2447;DHT22;26430;48.818;9.244;2022-12-05T00:16:57;3.10;99.90
2447;DHT22;26430;48.818;9.244;2022-12-05T00:19:23;3.20;99.90
2447;DHT22;26430;48.818;9.244;2022-12-05T00:21:48;3.20;99.90
2447;DHT22;26430;48.818;9.244;2022-12-05T00:24:15;3.10;99.90
2447;DHT22;26430;48.818;9.244;2022-12-05T00:26:41;3.10;99.90
2447;DHT22;26430;48.818;9.244;2022-12-05T00:29:07;3.10;99.90
2447;DHT22;26430;48.818;9.244;2022-12-05T00:31:33;3.20;99.90
2447;DHT22;26430;48.818;9.244;2022-12-05T00:34:00;3.10;99.90
2447;DHT22;26430;48.818;9.244;2022-12-05T00:36:29;3.00;99.90
2447;DHT22;26430;48.818;9.244;2022-12-05T00:38:58;3.20;99.90
2447;DHT22;26430;48.818;9.244;2022-12-05T00:41:25;3.30;99.90
2447;DHT22;26430;48.818;9.244;2022-12-05T00:43:51;3.20;99.90
2447;DHT22;26430;48.818;9.244;2022-12-05T00:46:22;3.20;99.90
2447;DHT22;26430;48.818;9.244;2022-12-05T00:48:48;3.10;99.90
2447;DHT22;26430;48.818;9.244;2022-12-05T00:51:18;3.00;99.90
2447;DHT22;26430;48.818;9.244;2022-12-05T00:53:45;3.00;99.90
2447;DHT22;26430;48.818;9.244;2022-12-05T00:56:18;3.10;99.90
2447;DHT22;26430;48.818;9.244;2022-12-05T00:58:44;3.00;99.90
2447;DHT22;26430;48.818;9.244;2022-12-05T01:01:35;2.90;99.90
2447;DHT22;26430;48.818;9.244;2022-12-05T01:04:07;2.90;99.90
2447;DHT22;26430;48.818;9.244;2022-12-05T01:06:34;3.10;99.90
2447;DHT22;26430;48.818;9.244;2022-12-05T01:08:59;3.00;99.90
2447;DHT22;26430;48.818;9.244;2022-12-05T01:11:26;3.20;99.90
2447;DHT22;26430;48.818;9.244;2022-12-05T01:13:52;3.10;99.90
2447;DHT22;26430;48.818;9.244;2022-12-05T01:16:45;3.00;99.90
2447;DHT22;26430;48.818;9.244;2022-12-05T01:19:14;2.90;99.90
2447;DHT22;26430;48.818;9.244;2022-12-05T01:21:40;2.90;99.90
2447;DHT22;26430;48.818;9.244;2022-12-05T01:24:06;2.90;99.90
2447;DHT22;26430;48.818;9.244;2022-12-05T01:26:32;2.90;99.90
2447;DHT22;26430;48.818;9.244;2022-12-05T01:28:58;2.80;99.90
2447;DHT22;26430;48.818;9.244;2022-12-05T01:31:24;2.80;99.90
2447;DHT22;26430;48.818;9.244;2022-12-05T01:33:51;2.90;99.90
2447;DHT22;26430;48.818;9.244;2022-12-05T01:36:17;2.80;99.90
2447;DHT22;26430;48.818;9.244;2022-12-05T01:38:43;2.80;99.90
2447;DHT22;26430;48.818;9.244;2022-12-05T01:41:13;2.80;99.90
2447;DHT22;26430;48.818;9.244;2022-12-05T01:44:00;2.80;99.90
2447;DHT22;26430;48.818;9.244;2022-12-05T01:46:28;3.00;99.90
2447;DHT22;26430;48.818;9.244;2022-12-05T01:49:09;2.90;99.90
2447;DHT22;26430;48.818;9.244;2022-12-05T01:51:37;3.00;99.90
2447;DHT22;26430;48.818;9.244;2022-12-05T01:54:04;3.00;99.90
2447;DHT22;26430;48.818;9.244;2022-12-05T01:56:31;2.90;99.90
2447;DHT22;26430;48.818;9.244;2022-12-05T01:58:58;2.90;99.90
2447;DHT22;26430;48.818;9.244;2022-12-05T02:01:24;2.80;99.90
2447;DHT22;26430;48.818;9.244;2022-12-05T02:03:53;2.80;99.90
2447;DHT22;26430;48.818;9.244;2022-12-05T02:06:19;2.90;99.90
2447;DHT22;26430;48.818;9.244;2022-12-05T02:08:46;2.90;99.90
2447;DHT22;26430;48.818;9.244;2022-12-05T02:11:12;2.80;99.90
2447;DHT22;26430;48.818;9.244;2022-12-05T02:16:55;2.90;99.90
2447;DHT22;26430;48.818;9.244;2022-12-05T02:30:23;2.90;99.90
2447;DHT22;26430;48.818;9.244;2022-12-05T02:40:51;3.00;99.90
2447;DHT22;26430;48.818;9.244;2022-12-05T02:43:24;3.00;99.90
2447;DHT22;26430;48.818;9.244;2022-12-05T02:45:59;3.00;99.90
2447;DHT22;26430;48.818;9.244;2022-12-05T02:48:28;3.10;99.90
2447;DHT22;26430;48.818;9.244;2022-12-05T02:50:56;3.10;99.90
2447;DHT22;26430;48.818;9.244;2022-12-05T02:53:24;3.10;99.90
2447;DHT22;26430;48.818;9.244;2022-12-05T02:55:54;3.10;99.90
2447;DHT22;26430;48.818;9.244;2022-12-05T02:58:24;3.00;99.90
2447;DHT22;26430;48.818;9.244;2022-12-05T03:00:55;3.00;99.90
2447;DHT22;26430;48.818;9.244;2022-12-05T03:03:22;2.90;99.90
2447;DHT22;26430;48.818;9.244;2022-12-05T03:06:10;3.00;99.90
2447;DHT22;26430;48.818;9.244;2022-12-05T03:08:48;3.00;99.90
2447;DHT22;26430;48.818;9.244;2022-12-05T03:11:16;2.90;99.90
2447;DHT22;26430;48.818;9.244;2022-12-05T03:13:52;3.00;99.90
2447;DHT22;26430;48.818;9.244;2022-12-05T03:16:29;3.00;99.90
2447;DHT22;26430;48.818;9.244;2022-12-05T03:19:02;3.00;99.90
2447;DHT22;26430;48.818;9.244;2022-12-05T03:21:42;3.10;99.90
2447;DHT22;26430;48.818;9.244;2022-12-05T03:24:14;3.20;99.90
2447;DHT22;26430;48.818;9.244;2022-12-05T03:26:49;3.30;99.90
2447;DHT22;26430;48.818;9.244;2022-12-05T03:29:30;3.40;99.90
2447;DHT22;26430;48.818;9.244;2022-12-05T03:32:05;3.40;99.90
2447;DHT22;26430;48.818;9.244;2022-12-05T03:40:14;3.40;99.90
2447;DHT22;26430;48.818;9.244;2022-12-05T03:43:37;3.50;99.90
2447;DHT22;26430;48.818;9.244;2022-12-05T03:46:11;3.30;99.90
2447;DHT22;26430;48.818;9.244;2022-12-05T03:51:22;3.40;99.90
2447;DHT22;26430;48.818;9.244;2022-12-05T03:53:57;3.50;99.90
2447;DHT22;26430;48.818;9.244;2022-12-05T03:56:44;3.30;99.90
2447;DHT22;26430;48.818;9.244;2022-12-05T03:59:32;3.30;99.90
2447;DHT22;26430;48.818;9.244;2022-12-05T04:02:04;3.30;99.90
2447;DHT22;26430;48.818;9.244;2022-12-05T04:04:38;3.30;99.90
2447;DHT22;26430;48.818;9.244;2022-12-05T04:07:09;3.50;99.90
2447;DHT22;26430;48.818;9.244;2022-12-05T04:09:46;3.50;99.90
2447;DHT22;26430;48.818;9.244;2022-12-05T04:12:18;3.50;99.90
2447;DHT22;26430;48.818;9.244;2022-12-05T04:14:50;3.50;99.90
2447;DHT22;26430;48.818;9.244;2022-12-05T04:17:42;3.50;99.90
2447;DHT22;26430;48.818;9.244;2022-12-05T04:23:15;3.60;99.90
2447;DHT22;26430;48.818;9.244;2022-12-05T04:25:54;3.60;99.90
2447;DHT22;26430;48.818;9.244;2022-12-05T04:31:06;3.70;99.90
2447;DHT22;26430;48.818;9.244;2022-12-05T04:34:02;3.80;99.90
2447;DHT22;26430;48.818;9.244;2022-12-05T04:41:44;3.70;99.90
2447;DHT22;26430;48.818;9.244;2022-12-05T04:44:17;3.60;99.90
2447;DHT22;26430;48.818;9.244;2022-12-05T04:46:45;3.70;99.90
2447;DHT22;26430;48.818;9.244;2022-12-05T04:49:16;3.70;99.90
2447;DHT22;26430;48.818;9.244;2022-12-05T04:51:44;3.80;99.90
2447;DHT22;26430;48.818;9.244;2022-12-05T04:54:27;3.70;99.90
2447;DHT22;26430;48.818;9.244;2022-12-05T04:57:00;3.70;99.90
2447;DHT22;26430;48.818;9.244;2022-12-05T04:59:27;3.80;99.90
2447;DHT22;26430;48.818;9.244;2022-12-05T05:01:56;3.80;99.90
2447;DHT22;26430;48.818;9.244;2022-12-05T05:04:31;3.90;99.90
2447;DHT22;26430;48.818;9.244;2022-12-05T05:06:58;3.90;99.90
2447;DHT22;26430;48.818;9.244;2022-12-05T05:09:24;3.90;99.90
2447;DHT22;26430;48.818;9.244;2022-12-05T05:11:50;3.90;99.90
2447;DHT22;26430;48.818;9.244;2022-12-05T05:14:15;3.90;99.90
2447;DHT22;26430;48.818;9.244;2022-12-05T05:16:41;4.00;99.90
2447;DHT22;26430;48.818;9.244;2022-12-05T05:19:08;4.00;99.90
2447;DHT22;26430;48.818;9.244;2022-12-05T05:21:39;4.00;99.90
2447;DHT22;26430;48.818;9.244;2022-12-05T05:24:06;4.00;99.90
2447;DHT22;26430;48.818;9.244;2022-12-05T05:26:35;4.00;99.90
2447;DHT22;26430;48.818;9.244;2022-12-05T05:29:02;3.90;99.90
2447;DHT22;26430;48.818;9.244;2022-12-05T05:31:28;3.80;99.90
2447;DHT22;26430;48.818;9.244;2022-12-05T05:33:54;3.80;99.90
2447;DHT22;26430;48.818;9.244;2022-12-05T05:36:22;3.80;99.90
2447;DHT22;26430;48.818;9.244;2022-12-05T05:38:50;3.60;99.90
2447;DHT22;26430;48.818;9.244;2022-12-05T05:41:20;3.50;99.90
2447;DHT22;26430;48.818;9.244;2022-12-05T05:43:47;3.40;99.90
2447;DHT22;26430;48.818;9.244;2022-12-05T05:46:13;3.60;99.90
2447;DHT22;26430;48.818;9.244;2022-12-05T05:48:40;3.60;99.90
2447;DHT22;26430;48.818;9.244;2022-12-05T05:51:07;3.60;99.90
2447;DHT22;26430;48.818;9.244;2022-12-05T05:53:33;3.60;99.90
2447;DHT22;26430;48.818;9.244;2022-12-05T05:56:08;3.60;99.90
2447;DHT22;26430;48.818;9.244;2022-12-05T05:58:34;3.60;99.90
2447;DHT22;26430;48.818;9.244;2022-12-05T06:01:08;3.60;99.90
2447;DHT22;26430;48.818;9.244;2022-12-05T06:03:35;3.70;99.90
2447;DHT22;26430;48.818;9.244;2022-12-05T06:06:02;3.80;99.90
2447;DHT22;26430;48.818;9.244;2022-12-05T06:08:30;3.90;99.90
2447;DHT22;26430;48.818;9.244;2022-12-05T06:10:55;3.90;99.90
2447;DHT22;26430;48.818;9.244;2022-12-05T06:13:21;3.90;99.90
2447;DHT22;26430;48.818;9.244;2022-12-05T06:15:47;4.00;99.90
2447;DHT22;26430;48.818;9.244;2022-12-05T06:18:12;3.90;99.90
2447;DHT22;26430;48.818;9.244;2022-12-05T06:20:38;4.00;99.90
2447;DHT22;26430;48.818;9.244;2022-12-05T06:23:04;4.10;99.90
2447;DHT22;26430;48.818;9.244;2022-12-05T06:25:29;4.20;99.90
2447;DHT22;26430;48.818;9.244;2022-12-05T06:27:55;4.20;99.90
2447;DHT22;26430;48.818;9.244;2022-12-05T06:30:21;4.20;99.90
2447;DHT22;26430;48.818;9.244;2022-12-05T06:32:46;4.20;99.90
2447;DHT22;26430;48.818;9.244;2022-12-05T06:35:12;4.20;99.90
2447;DHT22;26430;48.818;9.244;2022-12-05T06:37:42;4.10;99.90
2447;DHT22;26430;48.818;9.244;2022-12-05T06:40:09;3.80;99.90
2447;DHT22;26430;48.818;9.244;2022-12-05T06:42:35;3.70;99.90
2447;DHT22;26430;48.818;9.244;2022-12-05T06:45:01;3.60;99.90
2447;DHT22;26430;48.818;9.244;2022-12-05T06:47:26;3.80;99.90
2447;DHT22;26430;48.818;9.244;2022-12-05T06:49:52;3.60;99.90
2447;DHT22;26430;48.818;9.244;2022-12-05T06:52:18;3.70;99.90
2447;DHT22;26430;48.818;9.244;2022-12-05T06:54:43;3.60;99.90
2447;DHT22;26430;48.818;9.244;2022-12-05T06:57:11;3.70;99.90
2447;DHT22;26430;48.818;9.244;2022-12-05T06:59:37;3.60;99.90
2447;DHT22;26430;48.818;9.244;2022-12-05T07:02:03;3.70;99.90
2447;DHT22;26430;48.818;9.244;2022-12-05T07:04:33;3.80;99.90
2447;DHT22;26430;48.818;9.244;2022-12-05T07:06:59;3.70;99.90
2447;DHT22;26430;48.818;9.244;2022-12-05T07:09:27;3.60;99.90
2447;DHT22;26430;48.818;9.244;2022-12-05T07:12:14;3.80;99.90
2447;DHT22;26430;48.818;9.244;2022-12-05T07:14:41;4.00;99.90
2447;DHT22;26430;48.818;9.244;2022-12-05T07:17:07;4.10;99.90
2447;DHT22;26430;48.818;9.244;2022-12-05T07:19:32;4.20;99.90
2447;DHT22;26430;48.818;9.244;2022-12-05T07:21:58;4.10;99.90
2447;DHT22;26430;48.818;9.244;2022-12-05T07:24:24;4.00;99.90
2447;DHT22;26430;48.818;9.244;2022-12-05T07:26:49;3.90;99.90
2447;DHT22;26430;48.818;9.244;2022-12-05T07:29:15;3.90;99.90
2447;DHT22;26430;48.818;9.244;2022-12-05T07:31:40;4.00;99.90
2447;DHT22;26430;48.818;9.244;2022-12-05T07:34:06;3.80;99.90
2447;DHT22;26430;48.818;9.244;2022-12-05T07:36:32;3.70;99.90
2447;DHT22;26430;48.818;9.244;2022-12-05T07:38:58;3.90;99.90
2447;DHT22;26430;48.818;9.244;2022-12-05T07:41:26;4.00;99.90
2447;DHT22;26430;48.818;9.244;2022-12-05T07:43:53;4.10;99.90
2447;DHT22;26430;48.818;9.244;2022-12-05T07:46:19;4.00;99.90
2447;DHT22;26430;48.818;9.244;2022-12-05T07:48:46;4.00;99.90
2447;DHT22;26430;48.818;9.244;2022-12-05T07:51:12;3.90;99.90
2447;DHT22;26430;48.818;9.244;2022-12-05T07:53:38;4.00;99.90
2447;DHT22;26430;48.818;9.244;2022-12-05T07:56:07;4.10;99.90
2447;DHT22;26430;48.818;9.244;2022-12-05T07:58:34;4.10;99.90
2447;DHT22;26430;48.818;9.244;2022-12-05T08:01:30;4.20;99.90
2447;DHT22;26430;48.818;9.244;2022-12-05T08:03:57;4.30;99.90
2447;DHT22;26430;48.818;9.244;2022-12-05T08:06:26;4.30;99.90
2447;DHT22;26430;48.818;9.244;2022-12-05T08:08:52;4.40;99.90
2447;DHT22;26430;48.818;9.244;2022-12-05T08:11:23;4.30;99.90
2447;DHT22;26430;48.818;9.244;2022-12-05T08:13:50;4.40;99.90
2447;DHT22;26430;48.818;9.244;2022-12-05T08:16:18;4.60;99.90
2447;DHT22;26430;48.818;9.244;2022-12-05T08:18:44;4.70;99.90
2447;DHT22;26430;48.818;9.244;2022-12-05T08:21:15;4.80;99.90
2447;DHT22;26430;48.818;9.244;2022-12-05T08:23:41;4.70;99.90
2447;DHT22;26430;48.818;9.244;2022-12-05T08:26:13;4.60;99.90
2447;DHT22;26430;48.818;9.244;2022-12-05T08:28:40;4.50;99.90
2447;DHT22;26430;48.818;9.244;2022-12-05T08:31:12;4.40;99.90
2447;DHT22;26430;48.818;9.244;2022-12-05T08:33:39;4.50;99.90
2447;DHT22;26430;48.818;9.244;2022-12-05T08:36:07;4.60;99.90
2447;DHT22;26430;48.818;9.244;2022-12-05T08:38:34;4.60;99.90
2447;DHT22;26430;48.818;9.244;2022-12-05T08:41:04;4.40;99.90
2447;DHT22;26430;48.818;9.244;2022-12-05T08:43:30;4.40;99.90
2447;DHT22;26430;48.818;9.244;2022-12-05T08:45:57;4.40;99.90
2447;DHT22;26430;48.818;9.244;2022-12-05T08:48:24;4.30;99.90
2447;DHT22;26430;48.818;9.244;2022-12-05T08:50:49;4.30;99.90
2447;DHT22;26430;48.818;9.244;2022-12-05T08:53:16;4.20;99.90
2447;DHT22;26430;48.818;9.244;2022-12-05T08:55:42;4.30;99.90
2447;DHT22;26430;48.818;9.244;2022-12-05T08:58:10;4.30;99.90
2447;DHT22;26430;48.818;9.244;2022-12-05T09:00:35;4.30;99.90
2447;DHT22;26430;48.818;9.244;2022-12-05T09:03:01;4.50;99.90
2447;DHT22;26430;48.818;9.244;2022-12-05T09:05:27;4.60;99.90
2447;DHT22;26430;48.818;9.244;2022-12-05T09:07:53;4.70;99.90
2447;DHT22;26430;48.818;9.244;2022-12-05T09:10:18;4.70;99.90
2447;DHT22;26430;48.818;9.244;2022-12-05T09:12:44;4.70;99.90
2447;DHT22;26430;48.818;9.244;2022-12-05T09:15:10;4.70;99.90
2447;DHT22;26430;48.818;9.244;2022-12-05T09:17:37;4.60;99.90
2447;DHT22;26430;48.818;9.244;2022-12-05T09:20:05;4.60;99.90
2447;DHT22;26430;48.818;9.244;2022-12-05T09:22:31;4.60;99.90
2447;DHT22;26430;48.818;9.244;2022-12-05T09:24:57;4.70;99.90
2447;DHT22;26430;48.818;9.244;2022-12-05T09:27:22;4.60;99.90
2447;DHT22;26430;48.818;9.244;2022-12-05T09:29:48;4.70;99.90
2447;DHT22;26430;48.818;9.244;2022-12-05T09:32:14;4.70;99.90
2447;DHT22;26430;48.818;9.244;2022-12-05T09:34:39;4.70;99.90
2447;DHT22;26430;48.818;9.244;2022-12-05T09:37:06;4.70;99.90
2447;DHT22;26430;48.818;9.244;2022-12-05T09:39:32;4.70;99.90
2447;DHT22;26430;48.818;9.244;2022-12-05T09:47:47;4.90;99.90
2447;DHT22;26430;48.818;9.244;2022-12-05T09:50:33;4.90;99.90
2447;DHT22;26430;48.818;9.244;2022-12-05T09:55:39;5.00;99.90
2447;DHT22;26430;48.818;9.244;2022-12-05T09:58:25;5.00;99.90
2447;DHT22;26430;48.818;9.244;2022-12-05T10:00:59;4.90;99.90
2447;DHT22;26430;48.818;9.244;2022-12-05T10:03:40;4.90;99.90
2447;DHT22;26430;48.818;9.244;2022-12-05T10:06:19;5.00;99.90
2447;DHT22;26430;48.818;9.244;2022-12-05T10:15:19;4.90;99.90
2447;DHT22;26430;48.818;9.244;2022-12-05T10:20:43;5.10;99.90
2447;DHT22;26430;48.818;9.244;2022-12-05T10:23:17;5.00;99.90
2447;DHT22;26430;48.818;9.244;2022-12-05T10:25:46;5.10;99.90
2447;DHT22;26430;48.818;9.244;2022-12-05T10:28:45;5.10;99.90
2447;DHT22;26430;48.818;9.244;2022-12-05T10:31:16;5.30;99.90
2447;DHT22;26430;48.818;9.244;2022-12-05T10:33:48;5.50;99.90
2447;DHT22;26430;48.818;9.244;2022-12-05T10:36:16;5.60;99.90
2447;DHT22;26430;48.818;9.244;2022-12-05T10:38:43;5.80;99.90
2447;DHT22;26430;48.818;9.244;2022-12-05T10:41:11;5.90;99.90
2447;DHT22;26430;48.818;9.244;2022-12-05T10:43:41;5.90;99.90
2447;DHT22;26430;48.818;9.244;2022-12-05T10:46:09;5.90;99.90
2447;DHT22;26430;48.818;9.244;2022-12-05T10:48:38;5.80;99.90
2447;DHT22;26430;48.818;9.244;2022-12-05T10:51:05;5.90;99.90
2447;DHT22;26430;48.818;9.244;2022-12-05T10:53:46;6.00;99.90
2447;DHT22;26430;48.818;9.244;2022-12-05T10:56:52;6.00;99.90
2447;DHT22;26430;48.818;9.244;2022-12-05T10:59:23;5.80;99.90
2447;DHT22;26430;48.818;9.244;2022-12-05T11:01:55;6.10;99.90
2447;DHT22;26430;48.818;9.244;2022-12-05T11:04:25;6.40;99.90
2447;DHT22;26430;48.818;9.244;2022-12-05T11:07:02;6.60;99.90
2447;DHT22;26430;48.818;9.244;2022-12-05T11:09:31;6.60;99.90
2447;DHT22;26430;48.818;9.244;2022-12-05T11:14:26;7.00;99.90
2447;DHT22;26430;48.818;9.244;2022-12-05T11:16:58;7.10;99.90
2447;DHT22;26430;48.818;9.244;2022-12-05T11:19:37;7.20;99.90
2447;DHT22;26430;48.818;9.244;2022-12-05T11:22:04;7.10;99.90
2447;DHT22;26430;48.818;9.244;2022-12-05T11:24:37;7.10;99.90
2447;DHT22;26430;48.818;9.244;2022-12-05T11:29:41;7.30;99.90
2447;DHT22;26430;48.818;9.244;2022-12-05T11:32:25;7.50;99.90
2447;DHT22;26430;48.818;9.244;2022-12-05T11:35:08;7.50;99.90
2447;DHT22;26430;48.818;9.244;2022-12-05T11:37:45;7.70;99.90
2447;DHT22;26430;48.818;9.244;2022-12-05T11:40:14;7.70;99.90
2447;DHT22;26430;48.818;9.244;2022-12-05T11:42:52;7.70;99.90
2447;DHT22;26430;48.818;9.244;2022-12-05T11:51:36;7.80;99.90
2447;DHT22;26430;48.818;9.244;2022-12-05T12:05:15;7.60;99.90
2447;DHT22;26430;48.818;9.244;2022-12-05T12:07:53;7.50;99.90
2447;DHT22;26430;48.818;9.244;2022-12-05T12:32:29;8.00;99.90
2447;DHT22;26430;48.818;9.244;2022-12-05T12:38:07;7.70;99.90
2447;DHT22;26430;48.818;9.244;2022-12-05T12:45:05;7.40;99.90
2447;DHT22;26430;48.818;9.244;2022-12-05T12:47:49;7.30;99.90
2447;DHT22;26430;48.818;9.244;2022-12-05T12:50:24;7.30;99.90
2447;DHT22;26430;48.818;9.244;2022-12-05T12:58:46;7.30;99.90
2447;DHT22;26430;48.818;9.244;2022-12-05T13:01:19;7.20;99.90
2447;DHT22;26430;48.818;9.244;2022-12-05T13:03:52;7.30;99.90
2447;DHT22;26430;48.818;9.244;2022-12-05T13:06:27;7.30;99.90
2447;DHT22;26430;48.818;9.244;2022-12-05T13:08:57;7.30;99.90
2447;DHT22;26430;48.818;9.244;2022-12-05T13:11:25;7.40;99.90
2447;DHT22;26430;48.818;9.244;2022-12-05T13:13:56;7.30;99.90
2447;DHT22;26430;48.818;9.244;2022-12-05T13:16:33;7.30;99.90
2447;DHT22;26430;48.818;9.244;2022-12-05T13:19:00;7.40;99.90
2447;DHT22;26430;48.818;9.244;2022-12-05T13:21:27;7.40;99.90
2447;DHT22;26430;48.818;9.244;2022-12-05T13:23:55;7.40;99.90
2447;DHT22;26430;48.818;9.244;2022-12-05T13:26:21;7.30;99.90
2447;DHT22;26430;48.818;9.244;2022-12-05T13:29:03;7.30;99.90
2447;DHT22;26430;48.818;9.244;2022-12-05T13:31:43;7.30;99.90
2447;DHT22;26430;48.818;9.244;2022-12-05T13:34:45;7.30;99.90
2447;DHT22;26430;48.818;9.244;2022-12-05T13:37:22;7.40;99.90
2447;DHT22;26430;48.818;9.244;2022-12-05T13:40:30;7.20;99.90
2447;DHT22;26430;48.818;9.244;2022-12-05T13:43:17;7.20;99.90
2447;DHT22;26430;48.818;9.244;2022-12-05T13:48:27;7.40;99.90
2447;DHT22;26430;48.818;9.244;2022-12-05T13:51:22;7.50;99.90
2447;DHT22;26430;48.818;9.244;2022-12-05T13:53:48;7.40;99.90
2447;DHT22;26430;48.818;9.244;2022-12-05T13:58:49;7.10;99.90
2447;DHT22;26430;48.818;9.244;2022-12-05T14:04:01;7.00;99.90
2447;DHT22;26430;48.818;9.244;2022-12-05T14:09:00;6.80;99.90
2447;DHT22;26430;48.818;9.244;2022-12-05T14:11:26;6.80;99.90
2447;DHT22;26430;48.818;9.244;2022-12-05T14:13:52;6.80;99.90
2447;DHT22;26430;48.818;9.244;2022-12-05T14:19:05;6.60;99.90
2447;DHT22;26430;48.818;9.244;2022-12-05T14:24:34;6.70;99.90
2447;DHT22;26430;48.818;9.244;2022-12-05T14:30:24;6.70;99.90
2447;DHT22;26430;48.818;9.244;2022-12-05T14:32:53;6.70;99.90
2447;DHT22;26430;48.818;9.244;2022-12-05T14:35:30;6.60;99.90
2447;DHT22;26430;48.818;9.244;2022-12-05T14:38:03;6.60;99.90
2447;DHT22;26430;48.818;9.244;2022-12-05T14:40:38;6.60;99.90
2447;DHT22;26430;48.818;9.244;2022-12-05T14:43:30;6.60;99.90
2447;DHT22;26430;48.818;9.244;2022-12-05T14:48:35;6.50;99.90
2447;DHT22;26430;48.818;9.244;2022-12-05T14:54:09;6.50;99.90
2447;DHT22;26430;48.818;9.244;2022-12-05T14:56:44;6.50;99.90
2447;DHT22;26430;48.818;9.244;2022-12-05T14:59:28;6.50;99.90
2447;DHT22;26430;48.818;9.244;2022-12-05T15:01:59;6.40;99.90
2447;DHT22;26430;48.818;9.244;2022-12-05T15:04:31;6.40;99.90
2447;DHT22;26430;48.818;9.244;2022-12-05T15:07:07;6.40;99.90
2447;DHT22;26430;48.818;9.244;2022-12-05T15:09:55;6.40;99.90
2447;DHT22;26430;48.818;9.244;2022-12-05T15:12:37;6.30;99.90
2447;DHT22;26430;48.818;9.244;2022-12-05T15:17:56;6.40;99.90
2447;DHT22;26430;48.818;9.244;2022-12-05T15:22:55;6.30;99.90
2447;DHT22;26430;48.818;9.244;2022-12-05T15:25:22;6.30;99.90
2447;DHT22;26430;48.818;9.244;2022-12-05T15:27:59;6.20;99.90
2447;DHT22;26430;48.818;9.244;2022-12-05T15:30:26;6.20;99.90
2447;DHT22;26430;48.818;9.244;2022-12-05T15:32:53;6.20;99.90
2447;DHT22;26430;48.818;9.244;2022-12-05T15:35:19;6.30;99.90
2447;DHT22;26430;48.818;9.244;2022-12-05T15:37:51;6.20;99.90
2447;DHT22;26430;48.818;9.244;2022-12-05T15:40:19;6.10;99.90
2447;DHT22;26430;48.818;9.244;2022-12-05T15:42:54;6.00;99.90
2447;DHT22;26430;48.818;9.244;2022-12-05T15:45:27;5.90;99.90
2447;DHT22;26430;48.818;9.244;2022-12-05T15:47:54;5.80;99.90
2447;DHT22;26430;48.818;9.244;2022-12-05T15:50:36;5.70;99.90
2447;DHT22;26430;48.818;9.244;2022-12-05T15:53:21;5.70;99.90
2447;DHT22;26430;48.818;9.244;2022-12-05T15:58:45;5.50;99.90
2447;DHT22;26430;48.818;9.244;2022-12-05T16:06:47;5.30;99.90
2447;DHT22;26430;48.818;9.244;2022-12-05T16:09:19;5.20;99.90
2447;DHT22;26430;48.818;9.244;2022-12-05T16:11:56;5.20;99.90
2447;DHT22;26430;48.818;9.244;2022-12-05T16:14:25;5.20;99.90
2447;DHT22;26430;48.818;9.244;2022-12-05T16:16:57;5.20;99.90
2447;DHT22;26430;48.818;9.244;2022-12-05T16:19:25;5.10;99.90
2447;DHT22;26430;48.818;9.244;2022-12-05T16:27:37;4.90;99.90
2447;DHT22;26430;48.818;9.244;2022-12-05T16:30:19;5.00;99.90
2447;DHT22;26430;48.818;9.244;2022-12-05T16:32:46;5.00;99.90
2447;DHT22;26430;48.818;9.244;2022-12-05T16:35:43;5.00;99.90
2447;DHT22;26430;48.818;9.244;2022-12-05T16:43:39;5.10;99.90
2447;DHT22;26430;48.818;9.244;2022-12-05T16:48:38;5.20;99.90
2447;DHT22;26430;48.818;9.244;2022-12-05T16:51:19;5.20;99.90
2447;DHT22;26430;48.818;9.244;2022-12-05T16:53:49;5.30;99.90
2447;DHT22;26430;48.818;9.244;2022-12-05T16:58:43;5.40;99.90
2447;DHT22;26430;48.818;9.244;2022-12-05T17:01:20;5.60;99.90
2447;DHT22;26430;48.818;9.244;2022-12-05T17:03:46;5.60;99.90
2447;DHT22;26430;48.818;9.244;2022-12-05T17:06:12;5.60;99.90
2447;DHT22;26430;48.818;9.244;2022-12-05T17:08:39;5.50;99.90
2447;DHT22;26430;48.818;9.244;2022-12-05T17:11:13;5.50;99.90
2447;DHT22;26430;48.818;9.244;2022-12-05T17:13:40;5.50;99.90
2447;DHT22;26430;48.818;9.244;2022-12-05T17:16:06;5.60;99.90
2447;DHT22;26430;48.818;9.244;2022-12-05T17:18:32;5.50;99.90
2447;DHT22;26430;48.818;9.244;2022-12-05T17:20:59;5.60;99.90
2447;DHT22;26430;48.818;9.244;2022-12-05T17:23:25;5.60;99.90
2447;DHT22;26430;48.818;9.244;2022-12-05T17:25:53;5.90;99.90
2447;DHT22;26430;48.818;9.244;2022-12-05T17:28:19;6.20;99.90
2447;DHT22;26430;48.818;9.244;2022-12-05T17:30:45;6.20;99.90
2447;DHT22;26430;48.818;9.244;2022-12-05T17:33:12;6.10;99.90
2447;DHT22;26430;48.818;9.244;2022-12-05T17:35:38;5.80;99.90
2447;DHT22;26430;48.818;9.244;2022-12-05T17:38:04;5.60;99.90
2447;DHT22;26430;48.818;9.244;2022-12-05T17:40:31;5.40;99.90
2447;DHT22;26430;48.818;9.244;2022-12-05T17:42:57;5.20;99.90
2447;DHT22;26430;48.818;9.244;2022-12-05T17:45:23;5.20;99.90
2447;DHT22;26430;48.818;9.244;2022-12-05T17:47:49;5.20;99.90
2447;DHT22;26430;48.818;9.244;2022-12-05T17:50:17;5.30;99.90
2447;DHT22;26430;48.818;9.244;2022-12-05T17:52:44;5.40;99.90
2447;DHT22;26430;48.818;9.244;2022-12-05T17:55:17;5.70;99.90
2447;DHT22;26430;48.818;9.244;2022-12-05T17:57:43;5.90;99.90
2447;DHT22;26430;48.818;9.244;2022-12-05T18:00:10;5.80;99.90
2447;DHT22;26430;48.818;9.244;2022-12-05T18:02:36;5.90;99.90
2447;DHT22;26430;48.818;9.244;2022-12-05T18:05:02;6.00;99.90
2447;DHT22;26430;48.818;9.244;2022-12-05T18:07:27;5.80;99.90
2447;DHT22;26430;48.818;9.244;2022-12-05T18:09:53;5.70;99.90
2447;DHT22;26430;48.818;9.244;2022-12-05T18:12:18;5.90;99.90
2447;DHT22;26430;48.818;9.244;2022-12-05T18:14:44;5.70;99.90
2447;DHT22;26430;48.818;9.244;2022-12-05T18:17:10;5.70;99.90
2447;DHT22;26430;48.818;9.244;2022-12-05T18:19:35;5.60;99.90
2447;DHT22;26430;48.818;9.244;2022-12-05T18:22:01;5.50;99.90
2447;DHT22;26430;48.818;9.244;2022-12-05T18:24:27;5.40;99.90
2447;DHT22;26430;48.818;9.244;2022-12-05T18:26:52;5.40;99.90
2447;DHT22;26430;48.818;9.244;2022-12-05T18:29:21;5.40;99.90
2447;DHT22;26430;48.818;9.244;2022-12-05T18:31:47;5.30;99.90
2447;DHT22;26430;48.818;9.244;2022-12-05T18:34:13;5.30;99.90
2447;DHT22;26430;48.818;9.244;2022-12-05T18:36:39;5.30;99.90
2447;DHT22;26430;48.818;9.244;2022-12-05T18:39:05;5.30;99.90
2447;DHT22;26430;48.818;9.244;2022-12-05T18:41:31;5.30;99.90
2447;DHT22;26430;48.818;9.244;2022-12-05T18:43:57;5.20;99.90
2447;DHT22;26430;48.818;9.244;2022-12-05T18:46:23;5.20;99.90
2447;DHT22;26430;48.818;9.244;2022-12-05T18:48:48;5.20;99.90
2447;DHT22;26430;48.818;9.244;2022-12-05T18:51:19;5.20;99.90
2447;DHT22;26430;48.818;9.244;2022-12-05T18:53:47;5.20;99.90
2447;DHT22;26430;48.818;9.244;2022-12-05T18:56:18;5.30;99.90
2447;DHT22;26430;48.818;9.244;2022-12-05T18:58:44;5.40;99.90
2447;DHT22;26430;48.818;9.244;2022-12-05T19:01:11;5.40;99.90
2447;DHT22;26430;48.818;9.244;2022-12-05T19:03:38;5.30;99.90
2447;DHT22;26430;48.818;9.244;2022-12-05T19:06:15;5.20;99.90
2447;DHT22;26430;48.818;9.244;2022-12-05T19:08:42;5.20;99.90
2447;DHT22;26430;48.818;9.244;2022-12-05T19:11:13;5.10;99.90
2447;DHT22;26430;48.818;9.244;2022-12-05T19:13:39;5.00;99.90
2447;DHT22;26430;48.818;9.244;2022-12-05T19:16:07;5.00;99.90